Time;durP1;ratioP1;P1;durP2;ratioP2;P2;SDS_P1;SDS_P2;PMS_P1;PMS_P2;Temp;Humidity;BMP_temperature;BMP_pressure;BME280_temperature;BME280_humidity;BME280_pressure;Samples;Min_cycle;Max_cycle;Signal;HPM_P1;HPM_P2
2022/05/13 05:00:28;;;;;;;7.80;7.03;;;18.60;97.20;;;;;;1719893;28;20477;-71
2022/05/13 05:01:21;;;;;;;7.20;6.60;;;18.60;97.20;;;;;;1719873;28;20213;-71
2022/05/13 05:02:12;;;;;;;7.57;6.88;;;18.60;97.20;;;;;;1719901;28;20240;-71
2022/05/13 05:03:03;;;;;;;7.63;6.93;;;18.60;97.20;;;;;;1719821;28;20208;-69
2022/05/13 05:03:55;;;;;;;7.40;6.70;;;18.60;97.20;;;;;;1720059;28;20728;-71
2022/05/13 05:04:46;;;;;;;6.97;6.28;;;18.70;97.20;;;;;;1719873;28;20448;-71
2022/05/13 05:05:37;;;;;;;7.40;6.70;;;18.70;97.20;;;;;;1719774;28;20197;-70
2022/05/13 05:06:28;;;;;;;6.88;6.30;;;18.70;97.20;;;;;;1719682;28;20216;-71
2022/05/13 05:07:31;;;;;;;6.40;5.90;;;18.70;97.20;;;;;;1723286;28;20192;-70
2022/05/13 05:08:22;;;;;;;6.85;6.25;;;18.70;97.20;;;;;;1726613;28;20215;-71
2022/05/13 05:09:13;;;;;;;7.90;7.20;;;18.70;97.20;;;;;;1726420;28;20216;-71
2022/05/13 05:10:05;;;;;;;8.20;7.35;;;18.70;97.20;;;;;;1726563;28;20219;-71
2022/05/13 05:10:58;;;;;;;7.70;7.10;;;18.70;97.20;;;;;;1726641;28;20575;-71
2022/05/13 05:11:49;;;;;;;7.80;7.15;;;18.80;97.20;;;;;;1726409;28;20699;-71
2022/05/13 05:12:43;;;;;;;7.80;7.10;;;18.80;97.20;;;;;;1727215;28;20671;-71
2022/05/13 05:13:36;;;;;;;7.55;6.70;;;18.80;97.20;;;;;;1727170;28;20715;-71
2022/05/13 05:14:27;;;;;;;7.32;6.82;;;18.80;97.20;;;;;;1727218;28;20197;-71
2022/05/13 05:15:18;;;;;;;7.28;6.68;;;18.80;97.20;;;;;;1727300;28;20200;-71
2022/05/13 05:16:12;;;;;;;7.30;6.70;;;18.80;97.20;;;;;;1727284;28;20211;-71
2022/05/13 05:17:03;;;;;;;7.90;7.20;;;18.80;97.20;;;;;;1726932;28;20232;-71
2022/05/13 05:17:56;;;;;;;7.28;6.60;;;18.80;97.20;;;;;;1727145;28;20204;-71
2022/05/13 05:18:47;;;;;;;7.20;6.57;;;18.80;97.20;;;;;;1727241;28;20262;-71
2022/05/13 05:19:38;;;;;;;8.00;7.30;;;18.80;97.20;;;;;;1727273;28;20679;-71
2022/05/13 05:20:30;;;;;;;7.78;6.97;;;18.80;97.20;;;;;;1727283;28;20569;-71
2022/05/13 05:21:21;;;;;;;8.52;7.82;;;18.80;97.20;;;;;;1727261;28;20775;-71
2022/05/13 05:22:12;;;;;;;9.35;7.80;;;18.80;97.20;;;;;;1727307;28;20208;-71
2022/05/13 05:23:05;;;;;;;8.23;7.43;;;18.80;97.20;;;;;;1727282;28;20204;-71
2022/05/13 05:23:55;;;;;;;8.70;7.90;;;18.80;97.20;;;;;;1726907;28;20446;-71
2022/05/13 05:24:47;;;;;;;8.90;8.00;;;18.80;97.20;;;;;;1727161;28;20279;-70
2022/05/13 05:25:38;;;;;;;8.68;7.88;;;18.80;97.20;;;;;;1727219;28;20216;-71
2022/05/13 05:26:30;;;;;;;7.97;7.37;;;18.80;97.20;;;;;;1727020;28;20192;-71
2022/05/13 05:27:20;;;;;;;9.40;7.95;;;18.80;97.20;;;;;;1727103;28;20224;-70
2022/05/13 05:28:13;;;;;;;8.30;7.50;;;18.80;97.20;;;;;;1727176;28;20207;-71
2022/05/13 05:29:04;;;;;;;8.77;7.90;;;18.80;97.20;;;;;;1727191;28;20243;-70
2022/05/13 05:29:56;;;;;;;8.50;7.80;;;18.80;97.20;;;;;;1727196;28;20208;-71
2022/05/13 05:30:47;;;;;;;9.40;8.60;;;18.80;97.20;;;;;;1726638;28;20204;-71
2022/05/13 05:31:40;;;;;;;9.13;8.32;;;18.80;97.20;;;;;;1727190;28;20232;-70
2022/05/13 05:32:32;;;;;;;9.00;8.10;;;18.80;97.20;;;;;;1727305;28;20209;-70
2022/05/13 05:33:24;;;;;;;8.63;7.93;;;18.80;97.20;;;;;;1727152;28;20203;-71
2022/05/13 05:34:17;;;;;;;9.15;8.25;;;18.80;97.20;;;;;;1727192;28;20578;-70
2022/05/13 05:35:13;;;;;;;9.00;8.07;;;18.90;97.20;;;;;;1727201;28;20228;-71
2022/05/13 05:36:04;;;;;;;8.07;7.30;;;18.90;97.20;;;;;;1727174;28;20200;-71
2022/05/13 05:36:56;;;;;;;8.25;7.57;;;18.90;97.20;;;;;;1726721;28;20224;-70
2022/05/13 05:37:47;;;;;;;7.60;7.05;;;18.90;97.20;;;;;;1727156;28;20760;-71
2022/05/13 05:38:39;;;;;;;8.20;7.57;;;19.00;97.20;;;;;;1727202;28;20626;-71
2022/05/13 05:39:30;;;;;;;8.90;8.10;;;19.00;97.20;;;;;;1727159;28;20439;-70
2022/05/13 05:40:22;;;;;;;8.30;7.57;;;19.10;97.20;;;;;;1727174;28;20197;-71
2022/05/13 05:41:13;;;;;;;8.95;8.02;;;19.10;97.20;;;;;;1726868;28;20197;-70
2022/05/13 05:42:05;;;;;;;8.30;7.60;;;19.10;97.20;;;;;;1727122;28;20204;-70
2022/05/13 05:42:56;;;;;;;8.75;7.93;;;19.20;97.20;;;;;;1727085;28;20209;-71
2022/05/13 05:43:48;;;;;;;8.37;7.67;;;19.20;97.20;;;;;;1727189;28;20208;-71
2022/05/13 05:44:39;;;;;;;7.00;6.40;;;19.20;97.20;;;;;;1727071;28;20478;-70
2022/05/13 05:45:30;;;;;;;7.73;6.93;;;19.30;97.20;;;;;;1727222;28;20201;-71
2022/05/13 05:46:22;;;;;;;7.40;6.80;;;19.30;97.20;;;;;;1726473;28;20201;-70
2022/05/13 05:47:14;;;;;;;7.93;7.22;;;19.30;97.20;;;;;;1726534;28;20248;-71
2022/05/13 05:48:07;;;;;;;8.27;6.95;;;19.30;97.20;;;;;;1727002;28;20207;-71
2022/05/13 05:48:58;;;;;;;7.72;7.13;;;19.30;97.20;;;;;;1726918;28;20243;-71
2022/05/13 05:49:49;;;;;;;8.13;7.33;;;19.30;97.20;;;;;;1727069;28;20660;-71
2022/05/13 05:50:40;;;;;;;28.98;7.68;;;19.30;97.20;;;;;;1727036;28;20451;-71
2022/05/13 05:51:32;;;;;;;8.35;7.55;;;19.30;97.20;;;;;;1727136;28;20247;-71
2022/05/13 05:52:23;;;;;;;8.52;7.82;;;19.30;97.20;;;;;;1728319;28;20229;-71
2022/05/13 05:53:15;;;;;;;8.53;7.77;;;19.20;97.20;;;;;;1728429;28;20204;-71
2022/05/13 05:57:34;;;;;;;8.68;7.93;;;19.20;97.20;;;;;;1728372;28;20203;-71
2022/05/13 05:58:25;;;;;;;8.07;7.43;;;19.20;97.20;;;;;;1728243;28;20567;-71
2022/05/13 05:59:16;;;;;;;8.60;7.50;;;19.20;97.20;;;;;;1728301;28;20236;-71
2022/05/13 06:00:10;;;;;;;8.40;7.60;;;19.20;97.20;;;;;;1728302;28;20208;-71
2022/05/13 06:01:01;;;;;;;8.63;7.82;;;19.20;97.20;;;;;;1728205;28;20451;-71
2022/05/13 06:01:53;;;;;;;7.67;6.77;;;19.20;97.20;;;;;;1728305;28;20201;-71
2022/05/13 06:02:45;;;;;;;8.00;7.20;;;19.10;97.20;;;;;;1728248;28;20215;-70
2022/05/13 06:03:37;;;;;;;7.45;6.85;;;19.10;97.20;;;;;;1727983;28;20231;-71
2022/05/13 06:04:28;;;;;;;7.85;7.15;;;19.10;97.20;;;;;;1728253;28;20571;-71
2022/05/13 06:05:20;;;;;;;8.13;7.38;;;19.10;97.20;;;;;;1728130;28;20227;-71
2022/05/13 06:06:12;;;;;;;7.28;6.68;;;19.20;97.20;;;;;;1728242;28;20200;-71
2022/05/13 06:07:05;;;;;;;8.25;7.45;;;19.20;97.20;;;;;;1727955;28;20256;-71
2022/05/13 06:07:58;;;;;;;9.43;8.40;;;19.20;97.20;;;;;;1728203;28;20204;-71
2022/05/13 06:08:54;;;;;;;8.65;7.53;;;19.20;97.20;;;;;;1728291;28;20660;-71
2022/05/13 06:09:46;;;;;;;8.70;7.88;;;19.20;97.20;;;;;;1728256;28;20550;-71
2022/05/13 06:10:37;;;;;;;10.18;7.10;;;19.20;97.20;;;;;;1728255;28;20208;-70
2022/05/13 06:11:29;;;;;;;8.00;7.27;;;19.30;97.20;;;;;;1728297;28;20199;-71
2022/05/13 06:12:19;;;;;;;8.65;7.47;;;19.30;97.20;;;;;;1728271;28;20451;-71
2022/05/13 06:13:14;;;;;;;7.67;6.90;;;19.30;97.20;;;;;;1728339;28;20207;-71
2022/05/13 06:14:05;;;;;;;7.88;6.90;;;19.30;97.20;;;;;;1728192;28;20227;-71
2022/05/13 06:14:57;;;;;;;7.85;7.05;;;19.30;97.20;;;;;;1728240;28;20207;-71
2022/05/13 06:15:48;;;;;;;8.70;7.80;;;19.30;97.20;;;;;;1728235;28;20292;-71
2022/05/13 06:16:39;;;;;;;8.90;8.00;;;19.30;97.20;;;;;;1727744;28;20270;-70
2022/05/13 06:17:30;;;;;;;8.07;7.38;;;19.30;97.20;;;;;;1728149;28;20203;-71
2022/05/13 06:18:23;;;;;;;7.60;7.00;;;19.30;97.20;;;;;;1728141;28;20211;-71
2022/05/13 06:19:14;;;;;;;8.73;7.13;;;19.30;97.20;;;;;;1728159;28;20692;-71
2022/05/13 06:20:06;;;;;;;8.33;7.57;;;19.30;97.20;;;;;;1727800;28;20548;-71
2022/05/13 06:20:57;;;;;;;8.05;7.35;;;19.30;97.20;;;;;;1727997;28;20637;-72
2022/05/13 06:21:48;;;;;;;8.87;8.07;;;19.30;97.20;;;;;;1728234;28;20588;-72
2022/05/13 06:22:40;;;;;;;8.77;7.95;;;19.40;97.20;;;;;;1728116;28;20231;-72
2022/05/13 06:23:32;;;;;;;8.57;7.78;;;19.40;97.20;;;;;;1726997;28;20235;-72
2022/05/13 06:24:23;;;;;;;8.82;7.95;;;19.40;97.20;;;;;;1725746;28;20212;-71
2022/05/13 06:25:16;;;;;;;9.83;8.83;;;19.50;97.20;;;;;;1727612;28;20235;-71
2022/05/13 06:26:07;;;;;;;8.50;7.80;;;19.50;97.20;;;;;;1727219;28;20440;-71
2022/05/13 06:26:59;;;;;;;7.63;6.93;;;19.60;97.20;;;;;;1724806;28;20220;-71
2022/05/13 06:27:51;;;;;;;7.97;6.97;;;19.60;97.20;;;;;;1725527;28;20864;-71
2022/05/13 06:28:43;;;;;;;7.20;6.55;;;19.70;97.20;;;;;;1727993;28;20242;-71
2022/05/13 06:29:35;;;;;;;7.53;6.75;;;19.80;97.20;;;;;;1728035;28;20224;-70
2022/05/13 06:30:30;;;;;;;7.25;6.13;;;19.90;97.20;;;;;;1728095;28;20735;-71
2022/05/13 06:31:21;;;;;;;7.47;6.65;;;20.00;97.20;;;;;;1727904;28;20236;-71
2022/05/13 06:32:13;;;;;;;6.77;6.20;;;20.00;97.20;;;;;;1728080;28;20200;-72
2022/05/13 06:33:04;;;;;;;7.43;5.90;;;20.00;97.20;;;;;;1728015;28;20487;-72
2022/05/13 06:33:57;;;;;;;6.57;5.97;;;20.10;97.20;;;;;;1728005;28;20204;-72
2022/05/13 06:34:48;;;;;;;7.40;6.47;;;20.10;97.20;;;;;;1728062;28;20200;-72
2022/05/13 06:35:41;;;;;;;10.23;6.30;;;20.10;97.20;;;;;;1728060;28;20685;-72
2022/05/13 06:36:32;;;;;;;6.18;5.70;;;20.10;97.20;;;;;;1727856;28;20204;-72
2022/05/13 06:37:23;;;;;;;6.90;5.80;;;20.10;97.20;;;;;;1727546;28;20254;-72
2022/05/13 06:38:20;;;;;;;6.20;5.70;;;20.10;97.20;;;;;;1728012;28;20350;-71
2022/05/13 06:39:13;;;;;;;7.13;6.38;;;20.00;97.20;;;;;;1728076;28;20204;-71
2022/05/13 06:40:05;;;;;;;6.13;5.72;;;20.00;97.20;;;;;;1727994;28;20299;-71
2022/05/13 06:40:56;;;;;;;5.78;5.30;;;20.00;97.20;;;;;;1723936;28;20209;-70
2022/05/13 06:41:47;;;;;;;8.23;5.70;;;20.00;97.20;;;;;;1725004;28;20231;-70
2022/05/13 06:42:39;;;;;;;5.83;5.07;;;20.00;97.20;;;;;;1726924;28;20230;-70
2022/05/13 06:43:30;;;;;;;6.75;5.70;;;20.00;97.20;;;;;;1725458;28;20251;-70
2022/05/13 06:44:22;;;;;;;10.15;5.82;;;20.00;97.20;;;;;;1724568;28;20188;-70
2022/05/13 06:45:13;;;;;;;7.00;6.03;;;19.90;97.20;;;;;;1726511;28;20193;-70
2022/05/13 06:46:05;;;;;;;6.77;5.50;;;19.90;97.20;;;;;;1725924;28;20197;-70
2022/05/13 06:46:56;;;;;;;7.75;6.40;;;19.90;97.20;;;;;;1727294;28;20471;-71
2022/05/13 06:47:47;;;;;;;7.30;6.28;;;19.90;97.20;;;;;;1727839;28;20204;-71
2022/05/13 06:48:39;;;;;;;6.70;5.73;;;19.90;97.20;;;;;;1727308;28;20201;-70
2022/05/13 06:49:31;;;;;;;6.28;5.70;;;19.90;97.20;;;;;;1727947;28;20197;-71
2022/05/13 06:50:23;;;;;;;8.95;5.82;;;19.90;97.20;;;;;;1727856;28;20212;-70
2022/05/13 06:51:14;;;;;;;8.60;6.30;;;19.80;97.20;;;;;;1727964;28;20239;-71
2022/05/13 06:52:06;;;;;;;6.90;6.00;;;19.80;97.20;;;;;;1727762;28;20212;-70
2022/05/13 06:52:58;;;;;;;6.80;6.15;;;19.80;97.20;;;;;;1727884;28;20456;-70
2022/05/13 06:53:50;;;;;;;5.85;5.35;;;19.80;97.20;;;;;;1727394;28;20573;-70
2022/05/13 06:54:42;;;;;;;7.63;5.40;;;19.80;97.20;;;;;;1727454;28;20251;-70
2022/05/13 06:55:33;;;;;;;8.60;6.00;;;19.70;97.20;;;;;;1727808;28;20200;-70
2022/05/13 06:56:24;;;;;;;6.60;6.00;;;19.70;97.20;;;;;;1727243;28;20196;-70
2022/05/13 06:57:15;;;;;;;6.63;5.47;;;19.70;97.20;;;;;;1726951;28;20447;-70
2022/05/13 06:58:07;;;;;;;6.47;5.87;;;19.70;97.20;;;;;;1727334;28;20204;-70
2022/05/13 06:58:58;;;;;;;6.55;5.25;;;19.60;97.20;;;;;;1725247;28;20228;-70
2022/05/13 06:59:49;;;;;;;4.93;4.53;;;19.60;97.20;;;;;;1727000;28;20204;-71
2022/05/13 07:00:42;;;;;;;7.43;5.20;;;19.60;97.20;;;;;;1725057;28;20197;-71
2022/05/13 07:01:35;;;;;;;7.90;5.47;;;19.60;97.20;;;;;;1727452;28;20563;-71
2022/05/13 07:02:27;;;;;;;6.82;5.18;;;19.60;97.20;;;;;;1726918;28;20243;-71
2022/05/13 07:03:20;;;;;;;5.40;4.95;;;19.60;97.20;;;;;;1723350;28;20584;-70
2022/05/13 07:04:12;;;;;;;6.50;5.25;;;19.50;97.20;;;;;;1727611;28;20239;-71
2022/05/13 07:05:05;;;;;;;5.75;5.07;;;19.50;97.20;;;;;;1727586;28;20211;-71
2022/05/13 07:05:56;;;;;;;6.55;5.15;;;19.60;97.20;;;;;;1727066;28;20717;-71
2022/05/13 07:06:47;;;;;;;5.63;5.00;;;19.50;97.20;;;;;;1727125;28;20233;-69
2022/05/13 07:07:39;;;;;;;6.77;5.30;;;19.60;97.20;;;;;;1726624;28;20201;-71
2022/05/13 07:08:30;;;;;;;5.82;5.32;;;19.60;97.20;;;;;;1726487;28;20234;-71
2022/05/13 07:09:22;;;;;;;7.55;5.60;;;19.60;97.20;;;;;;1727449;28;20200;-70
2022/05/13 07:10:13;;;;;;;6.40;5.80;;;19.60;97.20;;;;;;1727402;28;20228;-71
2022/05/13 07:11:05;;;;;;;5.53;5.03;;;19.60;97.20;;;;;;1727332;28;20203;-71
2022/05/13 07:11:55;;;;;;;5.53;5.00;;;19.60;97.20;;;;;;1727500;28;20204;-71
2022/05/13 07:12:47;;;;;;;6.43;5.30;;;19.60;97.20;;;;;;1727627;28;20200;-71
2022/05/13 07:13:38;;;;;;;6.80;5.70;;;19.60;97.20;;;;;;1727733;28;20205;-71
2022/05/13 07:14:30;;;;;;;5.47;4.70;;;19.60;97.20;;;;;;1727876;28;20224;-71
2022/05/13 07:15:21;;;;;;;6.28;5.30;;;19.60;97.20;;;;;;1727740;28;20250;-71
2022/05/13 07:16:13;;;;;;;6.13;5.40;;;19.60;97.20;;;;;;1727789;28;20200;-70
2022/05/13 07:17:04;;;;;;;5.50;5.00;;;19.60;97.20;;;;;;1727291;28;20478;-71
2022/05/13 07:17:56;;;;;;;7.45;5.75;;;19.60;97.20;;;;;;1727583;28;20834;-71
2022/05/13 07:18:47;;;;;;;9.65;5.85;;;19.50;97.20;;;;;;1727547;28;20291;-71
2022/05/13 07:19:39;;;;;;;5.93;5.40;;;19.50;97.20;;;;;;1727638;28;20196;-71
2022/05/13 07:20:31;;;;;;;6.57;5.80;;;19.50;97.20;;;;;;1727618;28;20443;-70
2022/05/13 07:21:22;;;;;;;7.65;5.95;;;19.50;97.20;;;;;;1727576;28;20284;-71
2022/05/13 07:22:13;;;;;;;6.60;5.90;;;19.50;97.20;;;;;;1727623;28;20204;-71
2022/05/13 07:23:05;;;;;;;7.90;5.87;;;19.40;97.20;;;;;;1727605;28;20212;-70
2022/05/13 07:23:56;;;;;;;5.78;5.38;;;19.40;97.20;;;;;;1727509;28;20215;-71
2022/05/13 07:24:48;;;;;;;7.17;6.40;;;19.40;97.20;;;;;;1727578;28;20203;-71
2022/05/13 07:25:39;;;;;;;6.25;5.18;;;19.40;97.20;;;;;;1727511;28;20447;-71
2022/05/13 07:27:23;;;;;;;7.00;5.40;;;19.30;97.20;;;;;;1754454;23;20435;-77
2022/05/13 07:28:13;;;;;;;7.70;5.70;;;19.30;97.20;;;;;;1734281;28;20204;-77
2022/05/13 07:29:06;;;;;;;9.77;5.30;;;19.30;97.20;;;;;;1733423;28;20202;-77
2022/05/13 07:29:57;;;;;;;6.05;5.45;;;19.30;97.20;;;;;;1734148;28;20243;-77
2022/05/13 07:30:48;;;;;;;7.23;5.40;;;19.30;97.20;;;;;;1734511;28;20207;-77
2022/05/13 07:31:39;;;;;;;5.68;5.10;;;19.40;97.20;;;;;;1734336;28;20204;-77
2022/05/13 07:32:31;;;;;;;6.03;5.50;;;19.40;97.20;;;;;;1734328;28;20206;-77
2022/05/13 07:33:24;;;;;;;6.72;5.10;;;19.40;97.20;;;;;;1734406;28;20204;-77
2022/05/13 07:34:16;;;;;;;6.38;4.88;;;19.40;97.20;;;;;;1734422;28;20199;-77
2022/05/13 07:35:08;;;;;;;7.25;4.80;;;19.40;97.20;;;;;;1734550;28;20204;-77
2022/05/13 07:36:01;;;;;;;6.82;5.18;;;19.50;97.20;;;;;;1734547;28;20222;-77
2022/05/13 07:36:54;;;;;;;6.50;5.35;;;19.50;97.20;;;;;;1734106;28;20262;-77
2022/05/13 07:37:45;;;;;;;6.70;5.25;;;19.50;97.20;;;;;;1734483;28;20204;-77
2022/05/13 07:41:16;;;;;;;5.95;4.95;;;19.50;97.20;;;;;;1734459;28;20211;-76
2022/05/13 07:42:08;;;;;;;5.13;4.63;;;19.60;97.20;;;;;;1734463;28;20226;-77
2022/05/13 07:43:00;;;;;;;7.50;6.10;;;19.60;97.20;;;;;;1734459;28;20195;-77
2022/05/13 07:43:52;;;;;;;7.68;5.03;;;19.60;97.20;;;;;;1734421;28;20207;-77
2022/05/13 07:44:43;;;;;;;5.97;4.90;;;19.60;97.20;;;;;;1734170;28;20234;-77
2022/05/13 07:45:35;;;;;;;6.25;4.70;;;19.60;97.20;;;;;;1734461;28;20228;-77
2022/05/13 07:46:26;;;;;;;6.80;5.00;;;19.60;97.20;;;;;;1734128;28;20188;-77
2022/05/13 07:47:19;;;;;;;6.88;5.28;;;19.60;97.20;;;;;;1734105;28;20230;-77
2022/05/13 07:48:11;;;;;;;7.15;5.13;;;19.60;97.20;;;;;;1734297;28;20248;-77
2022/05/13 07:49:02;;;;;;;6.15;5.28;;;19.60;97.20;;;;;;1734326;28;20214;-77
2022/05/13 07:49:53;;;;;;;6.20;5.10;;;19.60;97.20;;;;;;1734330;28;20203;-77
2022/05/13 07:50:44;;;;;;;6.43;5.18;;;19.60;97.20;;;;;;1734331;28;20235;-77
2022/05/13 07:51:38;;;;;;;5.83;5.00;;;19.60;97.20;;;;;;1734449;28;20236;-77
2022/05/13 07:52:28;;;;;;;5.50;5.00;;;19.60;97.20;;;;;;1734405;28;20202;-77
2022/05/13 07:53:20;;;;;;;6.47;5.73;;;19.60;97.20;;;;;;1734362;28;20202;-77
2022/05/13 07:54:11;;;;;;;6.88;5.20;;;19.60;97.20;;;;;;1734406;28;20443;-77
2022/05/13 07:55:03;;;;;;;7.50;5.10;;;19.60;97.20;;;;;;1734326;28;20228;-77
2022/05/13 07:55:54;;;;;;;7.20;4.60;;;19.70;97.20;;;;;;1734432;28;20690;-77
2022/05/13 07:56:46;;;;;;;6.90;5.20;;;19.70;97.20;;;;;;1733997;28;20579;-77
2022/05/13 07:57:38;;;;;;;5.72;4.60;;;19.80;97.20;;;;;;1734302;28;20234;-77
2022/05/13 07:58:30;;;;;;;11.02;5.22;;;19.80;97.20;;;;;;1734428;28;20204;-77
2022/05/13 07:59:21;;;;;;;6.60;4.50;;;19.80;97.20;;;;;;1734336;28;20228;-78
2022/05/13 08:00:27;;;;;;;7.63;4.80;;;19.90;97.20;;;;;;1734374;28;20202;-77
2022/05/13 08:01:19;;;;;;;8.63;5.35;;;19.90;97.20;;;;;;1733900;28;20242;-77
2022/05/13 08:02:10;;;;;;;5.70;4.55;;;19.90;97.20;;;;;;1734523;28;20204;-77
2022/05/13 08:03:05;;;;;;;5.20;4.13;;;19.90;97.20;;;;;;1734536;28;20404;-77
2022/05/13 08:03:57;;;;;;;8.15;4.35;;;19.90;97.20;;;;;;1734450;28;20279;-77
2022/05/13 08:04:48;;;;;;;7.07;4.50;;;19.90;97.20;;;;;;1734393;28;20238;-77
2022/05/13 08:05:42;;;;;;;4.97;4.50;;;19.90;97.20;;;;;;1734378;28;20211;-77
2022/05/13 08:06:33;;;;;;;4.72;4.07;;;19.90;97.20;;;;;;1734055;28;20585;-77
2022/05/13 08:07:26;;;;;;;6.17;5.10;;;19.90;97.20;;;;;;1734256;28;20569;-77
2022/05/13 08:08:20;;;;;;;6.28;4.95;;;19.90;97.20;;;;;;1734250;28;20243;-77
2022/05/13 08:09:12;;;;;;;8.40;4.22;;;19.90;97.20;;;;;;1734374;28;20231;-77
2022/05/13 08:10:03;;;;;;;6.10;4.20;;;20.00;97.20;;;;;;1734272;28;20211;-77
2022/05/13 08:10:58;;;;;;;6.07;4.43;;;20.00;97.20;;;;;;1734285;28;20250;-77
2022/05/13 08:11:48;;;;;;;6.75;4.43;;;20.00;97.20;;;;;;1734394;28;20208;-77
2022/05/13 08:12:40;;;;;;;6.10;4.20;;;20.10;97.20;;;;;;1734275;28;20279;-77
2022/05/13 08:13:34;;;;;;;8.95;4.90;;;20.10;97.20;;;;;;1734320;28;20203;-77
2022/05/13 08:14:24;;;;;;;5.47;4.65;;;20.20;97.20;;;;;;1733595;28;20207;-77
2022/05/13 08:15:16;;;;;;;6.23;4.30;;;20.20;97.20;;;;;;1734008;28;20322;-77
2022/05/13 08:16:10;;;;;;;6.53;4.22;;;20.30;97.20;;;;;;1734274;28;20234;-77
2022/05/13 08:17:00;;;;;;;7.13;4.40;;;20.30;97.20;;;;;;1733918;28;20258;-77
2022/05/13 08:17:52;;;;;;;7.70;4.73;;;20.40;97.20;;;;;;1734286;28;20203;-77
2022/05/13 08:18:45;;;;;;;6.53;4.32;;;20.50;97.20;;;;;;1734309;28;20242;-77
2022/05/13 08:19:37;;;;;;;5.68;4.40;;;20.60;97.20;;;;;;1734251;28;20282;-77
2022/05/13 08:20:28;;;;;;;7.40;5.05;;;20.70;97.20;;;;;;1734275;28;20234;-77
2022/05/13 08:21:20;;;;;;;9.47;5.13;;;20.90;97.20;;;;;;1734296;28;20199;-77
2022/05/13 08:22:11;;;;;;;6.30;4.65;;;21.00;97.20;;;;;;1734359;28;20455;-77
2022/05/13 08:23:05;;;;;;;9.57;4.77;;;21.20;97.20;;;;;;1734342;28;20210;-77
2022/05/13 08:23:56;;;;;;;4.72;3.83;;;21.40;97.20;;;;;;1734299;28;20204;-77
2022/05/13 08:24:47;;;;;;;5.93;3.97;;;21.50;97.20;;;;;;1734493;28;20199;-76
2022/05/13 08:25:38;;;;;;;5.13;3.95;;;21.60;97.20;;;;;;1734232;28;20442;-77
2022/05/13 08:26:30;;;;;;;13.00;5.03;;;21.70;97.20;;;;;;1734361;28;20737;-77
2022/05/13 08:27:21;;;;;;;7.43;3.60;;;21.70;97.20;;;;;;1733885;28;20255;-77
2022/05/13 08:28:14;;;;;;;4.93;3.77;;;21.70;97.20;;;;;;1734229;28;20201;-77
2022/05/13 08:29:04;;;;;;;7.18;4.43;;;21.70;97.20;;;;;;1734423;28;20200;-77
2022/05/13 08:29:56;;;;;;;6.63;3.93;;;21.60;97.20;;;;;;1734322;28;20291;-77
2022/05/13 08:30:49;;;;;;;6.88;3.95;;;21.60;97.20;;;;;;1734160;28;20211;-77
2022/05/13 08:31:39;;;;;;;8.48;3.58;;;21.50;97.20;;;;;;1734070;28;20241;-78
2022/05/13 08:32:31;;;;;;;7.90;4.37;;;21.50;97.20;;;;;;1733953;28;20648;-77
2022/05/13 08:33:23;;;;;;;5.50;3.70;;;21.40;97.20;;;;;;1734281;28;20257;-77
2022/05/13 08:34:16;;;;;;;7.20;3.90;;;21.30;97.20;;;;;;1734324;28;20579;-77
2022/05/13 08:35:08;;;;;;;4.90;3.60;;;21.30;97.20;;;;;;1734272;28;20234;-77
2022/05/13 08:36:01;;;;;;;7.57;3.97;;;21.30;97.20;;;;;;1734270;28;20239;-77
2022/05/13 08:36:53;;;;;;;7.78;4.07;;;21.30;97.20;;;;;;1733868;28;20231;-77
2022/05/13 08:37:46;;;;;;;4.95;3.55;;;21.20;97.20;;;;;;1734151;28;20600;-77
2022/05/13 08:38:42;;;;;;;19.58;4.07;;;21.20;97.20;;;;;;1734282;28;20204;-77
2022/05/13 08:39:33;;;;;;;4.80;3.55;;;21.20;97.20;;;;;;1734309;28;20803;-77
2022/05/13 08:40:36;;;;;;;6.30;3.70;;;21.20;97.20;;;;;;1734246;28;20610;-77
2022/05/13 08:41:43;;;;;;;5.10;3.65;;;21.30;97.20;;;;;;1734377;28;20208;-76
2022/05/13 08:42:38;;;;;;;6.97;3.95;;;21.30;97.20;;;;;;1734294;28;20200;-77
2022/05/13 08:43:35;;;;;;;7.35;3.72;;;21.30;97.20;;;;;;1734384;28;20207;-77
2022/05/13 08:44:26;;;;;;;8.75;3.90;;;21.40;97.20;;;;;;1734264;28;20203;-77
2022/05/13 08:45:20;;;;;;;5.90;3.45;;;21.40;97.20;;;;;;1734091;28;20210;-77
2022/05/13 08:46:20;;;;;;;4.68;3.28;;;21.50;97.20;;;;;;1734178;28;20227;-77
2022/05/13 08:47:17;;;;;;;6.15;3.83;;;21.60;97.20;;;;;;1733929;28;20766;-76
2022/05/13 08:48:14;;;;;;;5.45;3.40;;;21.80;97.20;;;;;;1734534;28;20208;-77
2022/05/13 08:49:15;;;;;;;6.13;3.35;;;21.90;97.20;;;;;;1734153;28;20203;-76
2022/05/13 08:50:13;;;;;;;6.07;3.88;;;22.20;97.20;;;;;;1727752;28;20251;-76
2022/05/13 08:51:11;;;;;;;5.03;4.18;;;22.40;97.20;;;;;;1727738;28;20247;-77
2022/05/13 08:53:32;;;;;;;6.60;3.45;;;22.80;97.20;;;;;;1728025;28;20729;-76
2022/05/13 08:54:30;;;;;;;9.55;3.20;;;23.00;97.20;;;;;;1727850;28;20207;-77
2022/05/13 08:55:26;;;;;;;5.72;3.20;;;23.20;97.20;;;;;;1727716;28;20641;-77
2022/05/13 08:56:24;;;;;;;6.90;3.58;;;23.30;97.20;;;;;;1727777;28;20212;-77
2022/05/13 08:57:16;;;;;;;6.40;3.63;;;23.50;97.20;;;;;;1727455;28;20220;-77
2022/05/13 08:58:12;;;;;;;6.00;3.00;;;23.50;97.20;;;;;;1727863;28;20221;-77
2022/05/13 08:59:09;;;;;;;6.03;3.30;;;23.50;97.20;;;;;;1727578;28;20291;-76
2022/05/13 09:00:04;;;;;;;9.05;3.72;;;23.50;97.20;;;;;;1727638;28;20250;-77
2022/05/13 09:00:58;;;;;;;7.28;4.10;;;23.50;97.20;;;;;;1727610;28;20201;-77
2022/05/13 09:01:53;;;;;;;8.20;3.70;;;23.50;97.20;;;;;;1727558;28;20230;-77
2022/05/13 09:02:53;;;;;;;5.50;3.53;;;23.50;97.20;;;;;;1727602;28;20200;-77
2022/05/13 09:03:50;;;;;;;6.90;4.18;;;23.60;97.20;;;;;;1727978;28;20204;-77
2022/05/13 09:04:46;;;;;;;5.75;3.15;;;23.60;97.20;;;;;;1734308;28;20231;-77
2022/05/13 09:05:42;;;;;;;7.88;3.70;;;23.70;97.20;;;;;;1734532;28;20192;-77
2022/05/13 09:06:39;;;;;;;6.50;3.45;;;23.70;97.20;;;;;;1734328;28;20215;-77
2022/05/13 09:07:31;;;;;;;5.13;3.20;;;23.80;97.20;;;;;;1734316;28;20678;-77
2022/05/13 09:08:23;;;;;;;4.90;3.10;;;23.90;97.20;;;;;;1734317;28;20200;-77
2022/05/13 09:09:15;;;;;;;7.57;2.95;;;23.90;97.20;;;;;;1734048;28;20202;-77
2022/05/13 09:10:07;;;;;;;8.02;3.08;;;24.00;97.20;;;;;;1734062;28;20667;-77
2022/05/13 09:11:17;;;;;;;4.70;2.90;;;24.10;97.20;;;;;;1734094;28;20578;-77
2022/05/13 09:12:14;;;;;;;6.57;3.25;;;24.20;97.20;;;;;;1731703;28;20208;-77
2022/05/13 09:13:13;;;;;;;5.38;3.22;;;24.30;97.20;;;;;;1734149;28;20196;-77
2022/05/13 09:14:12;;;;;;;4.47;2.45;;;24.30;97.20;;;;;;1733871;28;20207;-77
2022/05/13 09:15:08;;;;;;;6.13;3.03;;;24.40;97.20;;;;;;1727144;28;20197;-77
2022/05/13 09:16:00;;;;;;;5.80;2.50;;;24.40;97.20;;;;;;1727261;28;20236;-77
2022/05/13 09:17:04;;;;;;;6.40;2.90;;;24.40;97.20;;;;;;1726947;28;20552;-77
2022/05/13 09:18:03;;;;;;;4.97;2.70;;;24.40;97.20;;;;;;1727196;28;20212;-77
2022/05/13 09:19:02;;;;;;;5.40;3.10;;;24.50;97.20;;;;;;1727321;28;20205;-77
2022/05/13 09:19:58;;;;;;;5.10;2.80;;;24.50;97.20;;;;;;1727321;28;20212;-77
2022/05/13 09:20:55;;;;;;;6.60;3.28;;;24.50;97.20;;;;;;1727388;28;20203;-77
2022/05/13 09:21:45;;;;;;;7.28;2.88;;;24.40;97.20;;;;;;1727289;28;20212;-77
2022/05/13 09:22:42;;;;;;;5.30;2.90;;;24.20;97.20;;;;;;1727228;28;20199;-77
2022/05/13 09:23:32;;;;;;;6.53;2.75;;;24.00;97.20;;;;;;1727298;28;20282;-77
2022/05/13 09:24:25;;;;;;;6.60;2.67;;;23.80;97.20;;;;;;1727227;28;20251;-77
2022/05/13 09:25:22;;;;;;;9.05;3.95;;;23.70;97.20;;;;;;1727288;28;20299;-77
2022/05/13 09:26:17;;;;;;;4.55;2.65;;;23.60;97.20;;;;;;1728613;28;20225;-77
2022/05/13 09:27:08;;;;;;;3.70;2.67;;;23.50;97.20;;;;;;1728081;28;20263;-77
2022/05/13 09:28:01;;;;;;;7.63;2.60;;;23.40;97.20;;;;;;1728301;28;20205;-77
2022/05/13 09:29:07;;;;;;;6.68;3.00;;;23.30;97.20;;;;;;1732419;28;20569;-77
2022/05/13 09:29:59;;;;;;;4.97;2.45;;;23.10;97.20;;;;;;1735277;28;20697;-76
2022/05/13 09:30:54;;;;;;;3.40;2.70;;;23.10;97.20;;;;;;1735036;28;20242;-77
2022/05/13 09:31:48;;;;;;;7.88;3.10;;;23.10;97.20;;;;;;1735410;28;20208;-77
2022/05/13 09:32:39;;;;;;;4.32;2.45;;;23.30;97.20;;;;;;1735255;28;20196;-77
2022/05/13 09:33:34;;;;;;;6.83;2.60;;;23.40;97.20;;;;;;1735439;28;20191;-77
2022/05/13 09:34:36;;;;;;;8.63;3.03;;;23.60;97.20;;;;;;1735280;28;20204;-77
2022/05/13 09:35:35;;;;;;;7.43;2.70;;;23.70;97.20;;;;;;1735274;28;20216;-77
2022/05/13 09:36:35;;;;;;;4.50;2.53;;;23.80;97.20;;;;;;1735353;28;20652;-77
2022/05/13 09:37:35;;;;;;;7.80;2.80;;;23.80;97.20;;;;;;1735302;28;20212;-77
2022/05/13 09:38:30;;;;;;;5.53;2.70;;;23.70;97.20;;;;;;1735438;28;20231;-77
2022/05/13 09:39:24;;;;;;;5.28;2.63;;;23.60;97.20;;;;;;1735272;28;20199;-77
2022/05/13 09:40:24;;;;;;;6.70;3.33;;;23.60;97.20;;;;;;1735238;28;20200;-77
2022/05/13 09:41:26;;;;;;;5.88;3.08;;;23.50;97.20;;;;;;1735407;28;20200;-77
2022/05/13 09:42:23;;;;;;;9.40;2.67;;;23.50;97.20;;;;;;1735351;28;20618;-77
2022/05/13 09:43:33;;;;;;;5.95;2.70;;;23.50;97.20;;;;;;1735267;28;20691;-77